01:54
Airports
Links
Donate
Help keep this website running!
PayPal
Bitcoin
METAR
LICT 240055Z 12006KT CAVOK 11/09 Q1021 RMK SKC VIS MIN 9999 WIND THR13 12006KT BLU
Current Weather Conditions at LICT
VFR 00:55:00 24-11-17
Altimeter:30.15 hg
Temp:11.0°c 52°f
Dew point:9.0°c 48°f
Wind:6 knots, 6.9 mph, 3 m/s, from 120°
Visibility:6.21 statute miles
(CAVOK)
Past METAR reports
VFR 23:55:00 23-11-17
Altimeter:30.15 hg
Temp:11.0°c 52°f
Dew point:10.0°c 50°f
Wind:5 knots, 5.8 mph, 3 m/s, from 90°
Visibility:6.21 statute miles
(CAVOK)
LICT 232355Z 09005KT CAVOK 11/10 Q1021 RMK SKC VIS MIN 9999 WIND THR13 10005KT BLU
VFR 22:55:00 23-11-17
Altimeter:30.15 hg
Temp:11.0°c 52°f
Dew point:10.0°c 50°f
Wind:4 knots, 4.6 mph, 2 m/s, from 120°
Visibility:6.21 statute miles
(CAVOK)
LICT 232255Z 12004KT CAVOK 11/10 Q1021 RMK SKC VIS MIN 9999 WIND THR13 11007KT BLU
VFR 21:55:00 23-11-17
Altimeter:30.18 hg
Temp:12.0°c 54°f
Dew point:10.0°c 50°f
Wind:4 knots, 4.6 mph, 2 m/s, from 110°
Visibility:6.21 statute miles
(CAVOK)
LICT 232155Z 11004KT CAVOK 12/10 Q1022 RMK SKC VIS MIN 9999 WIND THR13 10006KT BLU
VFR 20:55:00 23-11-17
Altimeter:30.18 hg
Temp:12.0°c 54°f
Dew point:10.0°c 50°f
Wind:4 knots, 4.6 mph, 2 m/s, from 110°
Visibility:6.21 statute miles
(CAVOK)
LICT 232055Z 11004KT CAVOK 12/10 Q1022 RMK SKC VIS MIN 9999 WIND THR13 11005KT BLU
VFR 19:55:00 23-11-17
Altimeter:30.15 hg
Temp:13.0°c 55°f
Dew point:12.0°c 54°f
Wind:4 knots, 4.6 mph, 2 m/s, from 100°
Visibility:6.21 statute miles
(CAVOK)
LICT 231955Z 10004KT CAVOK 13/12 Q1021 RMK SKC VIS MIN 9999 WIND THR13 10005KT BLU
TAF
TAF LICT 232300Z 2400/2409 10006KT 9999 SCT025
Forecast at LICT
00:00 24-11-17 to 09:00 24-11-17
Wind:6 Knots from 100°
Visibility:6.21 statute miles
2500SCT Scattered